Terminal Aerodrome Forecast
Issued by NWS

Home | Current Version | Previous Version | Text Only | Print | Product List | Glossary On
Versions: 1 2 3 4 5 6 7 8 9 10 11 12 13 14 15 16 17 18 19 20 21 22 23 24 25
000
FTUS44 KHGX 250520
TAFLBX
TAF
KLBX 250520Z 2506/2606 VRB03KT P6SM VCSH SCT020
      TEMPO 2510/2514 TSRA BKN020CB
     FM251400 11006KT P6SM VCTS BKN025CB PROB30 2515/2521 TSRA
     FM252200 12006KT P6SM SCT035
     FM260100 VRB03KT P6SM SCT250=

USA.gov is the U.S. government's official web portal to all federal, state and local government web resources and services.